Time,TemperatureF,DewpointF,PressureIn,WindDirection,WindDirectionDegrees,WindSpeedMPH,WindSpeedGustMPH,Humidity,HourlyPrecipIn,Conditions,Clouds,dailyrainin,SolarRadiationWatts/m^2,SoftwareType,DateUTC
2013-01-07 00:12:00,24.0,22.0,-100.00,ESE,111,0.0,0.0,93,0.00,,,0.00,0.000000,,2013-01-07 08:12:00,
2013-01-07 00:22:00,24.0,22.0,-100.00,ESE,111,0.0,0.0,93,0.00,,,0.00,0.000000,,2013-01-07 08:22:00,
2013-01-07 00:32:00,24.0,22.0,-100.00,ESE,111,0.0,0.0,93,0.00,,,0.00,0.000000,,2013-01-07 08:32:00,
2013-01-07 00:42:00,24.0,22.0,-100.00,ESE,111,0.0,0.0,93,0.00,,,0.00,0.000000,,2013-01-07 08:42:00,
2013-01-07 01:02:00,24.0,22.0,-100.00,NE,37,0.0,0.0,93,0.00,,,0.00,0.000000,,2013-01-07 09:02:00,
2013-01-07 01:12:00,24.0,22.0,-100.00,NE,37,0.0,0.0,93,0.00,,,0.00,0.000000,,2013-01-07 09:12:00,
2013-01-07 01:22:00,24.0,22.0,-100.00,NE,37,0.0,0.0,93,0.00,,,0.00,0.000000,,2013-01-07 09:22:00,
2013-01-07 01:32:00,24.0,22.0,-100.00,NE,37,0.0,0.0,93,0.00,,,0.00,0.000000,,2013-01-07 09:32:00,
2013-01-07 01:42:00,24.0,22.0,-100.00,NE,37,0.0,0.0,93,0.00,,,0.00,0.000000,,2013-01-07 09:42:00,
2013-01-07 02:02:00,24.0,22.0,-100.00,NE,40,0.0,0.0,93,0.00,,,0.00,0.000000,,2013-01-07 10:02:00,
2013-01-07 02:12:00,24.0,22.0,-100.00,NE,40,0.0,0.0,93,0.00,,,0.00,0.000000,,2013-01-07 10:12:00,
2013-01-07 02:22:00,24.0,22.0,-100.00,NE,40,0.0,0.0,93,0.00,,,0.00,0.000000,,2013-01-07 10:22:00,
2013-01-07 02:32:00,24.0,22.0,-100.00,NE,40,0.0,0.0,93,0.00,,,0.00,0.000000,,2013-01-07 10:32:00,
2013-01-07 02:42:00,24.0,22.0,-100.00,NE,40,0.0,0.0,93,0.00,,,0.00,0.000000,,2013-01-07 10:42:00,
2013-01-07 03:12:00,23.0,21.0,-100.00,NNE,16,0.0,0.0,92,0.00,,,0.00,0.000000,,2013-01-07 11:12:00,
2013-01-07 03:22:00,23.0,21.0,-100.00,NNE,16,0.0,0.0,92,0.00,,,0.00,0.000000,,2013-01-07 11:22:00,
2013-01-07 03:32:00,23.0,21.0,-100.00,NNE,16,0.0,0.0,92,0.00,,,0.00,0.000000,,2013-01-07 11:32:00,
2013-01-07 03:42:00,23.0,21.0,-100.00,NNE,16,0.0,0.0,92,0.00,,,0.00,0.000000,,2013-01-07 11:42:00,
2013-01-07 04:12:00,23.0,21.0,-100.00,NNW,346,0.0,0.0,92,0.00,,,0.00,0.000000,,2013-01-07 12:12:00,
2013-01-07 04:22:00,23.0,21.0,-100.00,NNW,346,0.0,0.0,92,0.00,,,0.00,0.000000,,2013-01-07 12:22:00,
2013-01-07 04:32:00,23.0,21.0,-100.00,NNW,346,0.0,0.0,92,0.00,,,0.00,0.000000,,2013-01-07 12:32:00,
2013-01-07 04:42:00,23.0,21.0,-100.00,NNW,346,0.0,0.0,92,0.00,,,0.00,0.000000,,2013-01-07 12:42:00,
2013-01-07 06:12:00,23.0,21.0,-100.00,North,1,0.0,0.0,93,-99.99,,,0.00,0.000000,,2013-01-07 14:12:00,
2013-01-07 06:22:00,23.0,21.0,-100.00,North,1,0.0,0.0,93,-99.99,,,0.00,0.000000,,2013-01-07 14:22:00,
2013-01-07 06:33:00,23.0,21.0,-100.00,North,1,0.0,0.0,93,-99.99,,,0.00,0.000000,,2013-01-07 14:33:00,
2013-01-07 06:42:00,23.0,21.0,-100.00,North,1,0.0,0.0,93,-99.99,,,0.00,0.000000,,2013-01-07 14:42:00,
2013-01-07 07:12:00,23.0,21.0,-100.00,NNW,348,0.0,0.0,93,0.00,,,0.00,0.000000,,2013-01-07 15:12:00,
2013-01-07 07:22:00,23.0,21.0,-100.00,NNW,348,0.0,0.0,93,0.00,,,0.00,0.000000,,2013-01-07 15:22:00,
2013-01-07 07:33:00,23.0,21.0,-100.00,NNW,348,0.0,0.0,93,0.00,,,0.00,0.000000,,2013-01-07 15:33:00,
2013-01-07 07:42:00,23.0,21.0,-100.00,NNW,348,0.0,0.0,93,0.00,,,0.00,0.000000,,2013-01-07 15:42:00,
2013-01-07 08:12:00,23.0,21.0,-100.00,NW,311,0.0,0.0,93,0.00,,,0.00,0.000000,,2013-01-07 16:12:00,
2013-01-07 08:22:00,23.0,21.0,-100.00,NW,311,0.0,0.0,93,0.00,,,0.00,0.000000,,2013-01-07 16:22:00,
2013-01-07 08:33:00,23.0,21.0,-100.00,NW,311,0.0,0.0,93,0.00,,,0.00,0.000000,,2013-01-07 16:33:00,
2013-01-07 08:42:00,23.0,21.0,-100.00,NW,311,0.0,0.0,93,0.00,,,0.00,0.000000,,2013-01-07 16:42:00,
2013-01-07 09:12:00,25.0,23.0,-100.00,NW,311,0.0,0.0,93,0.00,,,0.00,0.000000,,2013-01-07 17:12:00,
2013-01-07 09:22:00,25.0,23.0,-100.00,NW,311,0.0,0.0,93,0.00,,,0.00,0.000000,,2013-01-07 17:22:00,
2013-01-07 09:32:00,25.0,23.0,-100.00,NW,311,0.0,0.0,93,0.00,,,0.00,0.000000,,2013-01-07 17:32:00,
2013-01-07 09:42:00,25.0,23.0,-100.00,NW,311,0.0,0.0,93,0.00,,,0.00,0.000000,,2013-01-07 17:42:00,
2013-01-07 10:12:00,26.0,24.0,-100.00,NW,311,0.0,0.0,93,0.00,,,0.00,0.000000,,2013-01-07 18:12:00,
2013-01-07 10:23:00,26.0,24.0,-100.00,NW,311,0.0,0.0,93,0.00,,,0.00,0.000000,,2013-01-07 18:23:00,
2013-01-07 10:32:00,26.0,24.0,-100.00,NW,311,0.0,0.0,93,0.00,,,0.00,0.000000,,2013-01-07 18:32:00,
2013-01-07 10:42:00,26.0,24.0,-100.00,NW,311,0.0,0.0,93,0.00,,,0.00,0.000000,,2013-01-07 18:42:00,
2013-01-07 11:12:00,30.0,28.0,-100.00,SSW,206,0.0,0.0,93,0.00,,,0.00,0.000000,,2013-01-07 19:12:00,
2013-01-07 11:22:00,30.0,28.0,-100.00,SSW,206,0.0,0.0,93,0.00,,,0.00,0.000000,,2013-01-07 19:22:00,
2013-01-07 11:33:00,30.0,28.0,-100.00,SSW,206,0.0,0.0,93,0.00,,,0.00,0.000000,,2013-01-07 19:33:00,
2013-01-07 11:42:00,30.0,28.0,-100.00,SSW,206,0.0,0.0,93,0.00,,,0.00,0.000000,,2013-01-07 19:42:00,
2013-01-07 12:12:00,28.0,26.0,-100.00,North,356,0.0,0.0,93,0.01,,,0.01,0.000000,,2013-01-07 20:12:00,
2013-01-07 12:22:00,28.0,26.0,-100.00,North,356,0.0,0.0,93,0.01,,,0.01,0.000000,,2013-01-07 20:22:00,
2013-01-07 12:33:00,28.0,26.0,-100.00,North,356,0.0,0.0,93,0.01,,,0.01,0.000000,,2013-01-07 20:33:00,
2013-01-07 12:42:00,28.0,26.0,-100.00,North,356,0.0,0.0,93,0.01,,,0.01,0.000000,,2013-01-07 20:42:00,
2013-01-07 13:12:00,31.0,29.0,-100.00,East,93,0.0,0.0,93,0.04,,,0.05,0.000000,,2013-01-07 21:12:00,
2013-01-07 13:22:00,31.0,29.0,-100.00,East,93,0.0,0.0,93,0.04,,,0.05,0.000000,,2013-01-07 21:22:00,
2013-01-07 13:32:00,31.0,29.0,-100.00,East,93,0.0,0.0,93,0.04,,,0.05,0.000000,,2013-01-07 21:32:00,
2013-01-07 13:42:00,31.0,29.0,-100.00,East,93,0.0,0.0,93,0.04,,,0.05,0.000000,,2013-01-07 21:42:00,
2013-01-07 14:12:00,28.0,26.0,-100.00,SSE,166,0.0,0.0,92,0.02,,,0.07,0.000000,,2013-01-07 22:12:00,
2013-01-07 14:22:00,28.0,26.0,-100.00,SSE,166,0.0,0.0,92,0.02,,,0.07,0.000000,,2013-01-07 22:22:00,
2013-01-07 14:33:00,28.0,26.0,-100.00,SSE,166,0.0,0.0,92,0.02,,,0.07,0.000000,,2013-01-07 22:33:00,
2013-01-07 14:42:00,28.0,26.0,-100.00,SSE,166,0.0,0.0,92,0.02,,,0.07,0.000000,,2013-01-07 22:42:00,
2013-01-07 15:12:00,26.0,24.0,-100.00,ESE,121,0.0,0.0,92,0.01,,,0.08,0.000000,,2013-01-07 23:12:00,
2013-01-07 15:22:00,26.0,24.0,-100.00,ESE,121,0.0,0.0,92,0.01,,,0.08,0.000000,,2013-01-07 23:22:00,
2013-01-07 15:32:00,26.0,24.0,-100.00,ESE,121,0.0,0.0,92,0.01,,,0.08,0.000000,,2013-01-07 23:32:00,
2013-01-07 15:42:00,26.0,24.0,-100.00,ESE,121,0.0,0.0,92,0.01,,,0.08,0.000000,,2013-01-07 23:42:00,
2013-01-07 16:12:00,25.0,23.0,-100.00,ESE,107,0.0,0.0,93,0.00,,,0.08,0.000000,,2013-01-08 00:12:00,
2013-01-07 16:22:00,25.0,23.0,-100.00,ESE,107,0.0,0.0,93,0.00,,,0.08,0.000000,,2013-01-08 00:22:00,
2013-01-07 16:32:00,25.0,23.0,-100.00,ESE,107,0.0,0.0,93,0.00,,,0.08,0.000000,,2013-01-08 00:32:00,
2013-01-07 16:42:00,25.0,23.0,-100.00,ESE,107,0.0,0.0,93,0.00,,,0.08,0.000000,,2013-01-08 00:42:00,
2013-01-07 17:12:00,23.0,21.0,-100.00,East,82,0.0,0.0,92,0.00,,,0.08,0.000000,,2013-01-08 01:12:00,
2013-01-07 17:22:00,23.0,21.0,-100.00,East,82,0.0,0.0,92,0.00,,,0.08,0.000000,,2013-01-08 01:22:00,
2013-01-07 17:32:00,23.0,21.0,-100.00,East,82,0.0,0.0,92,0.00,,,0.08,0.000000,,2013-01-08 01:32:00,
2013-01-07 17:42:00,23.0,21.0,-100.00,East,82,0.0,0.0,92,0.00,,,0.08,0.000000,,2013-01-08 01:42:00,
2013-01-07 18:12:00,27.0,25.0,-100.00,ESE,112,0.0,0.0,93,0.00,,,0.08,0.000000,,2013-01-08 02:12:00,
2013-01-07 18:22:00,27.0,25.0,-100.00,ESE,112,0.0,0.0,93,0.00,,,0.08,0.000000,,2013-01-08 02:22:00,
2013-01-07 18:32:00,27.0,25.0,-100.00,ESE,112,0.0,0.0,93,0.00,,,0.08,0.000000,,2013-01-08 02:32:00,
2013-01-07 18:42:00,27.0,25.0,-100.00,ESE,112,0.0,0.0,93,0.00,,,0.08,0.000000,,2013-01-08 02:42:00,
2013-01-07 19:12:00,35.0,33.0,-100.00,NW,308,23.0,28.0,92,0.01,,,0.09,0.000000,,2013-01-08 03:12:00,
2013-01-07 19:22:00,35.0,33.0,-100.00,NW,308,23.0,28.0,92,0.01,,,0.09,0.000000,,2013-01-08 03:22:00,
2013-01-07 20:12:00,38.0,31.0,-100.00,NW,309,29.0,37.0,75,0.04,,,0.13,0.000000,,2013-01-08 04:12:00,
2013-01-07 20:22:00,38.0,31.0,-100.00,NW,309,29.0,37.0,75,0.04,,,0.13,0.000000,,2013-01-08 04:22:00,
2013-01-07 21:12:00,37.0,31.0,-100.00,WNW,301,25.0,38.0,78,-99.99,,,0.13,0.000000,,2013-01-08 05:12:00,
2013-01-07 21:22:00,37.0,31.0,-100.00,WNW,301,25.0,38.0,78,-99.99,,,0.13,0.000000,,2013-01-08 05:22:00,
2013-01-07 22:12:00,36.0,30.0,-100.00,WNW,299,13.0,39.0,78,-99.99,,,0.13,0.000000,,2013-01-08 06:12:00,
2013-01-07 22:22:00,36.0,30.0,-100.00,WNW,299,13.0,39.0,78,-99.99,,,0.13,0.000000,,2013-01-08 06:22:00,
2013-01-07 23:12:00,36.0,27.0,-100.00,South,183,7.0,20.0,70,-99.99,,,0.13,0.000000,,2013-01-08 07:12:00,